createdAt,value
2022-09-27T00:01:12.285Z,919.77
2022-09-27T00:03:40.525Z,928.43
2022-09-27T00:06:10.453Z,930.10
2022-09-27T00:08:40.097Z,925.90
2022-09-27T00:11:13.606Z,924.93
2022-09-27T00:13:42.159Z,929.43
2022-09-27T00:16:11.161Z,922.97
2022-09-27T00:18:40.727Z,922.40
2022-09-27T00:21:10.405Z,918.70
2022-09-27T00:23:40.328Z,924.00
2022-09-27T00:26:10.522Z,927.13
2022-09-27T00:28:38.752Z,918.20
2022-09-27T00:31:15.486Z,921.77
2022-09-27T00:33:43.625Z,920.60
2022-09-27T00:36:11.776Z,920.77
2022-09-27T00:38:41.575Z,924.23
2022-09-27T00:41:11.248Z,916.20
2022-09-27T00:43:48.698Z,922.97
2022-09-27T00:46:22.383Z,924.47
2022-09-27T00:48:57.150Z,922.53
2022-09-27T00:51:25.590Z,927.67
2022-09-27T00:53:56.034Z,920.53
2022-09-27T00:56:27.569Z,929.73
2022-09-27T00:58:58.253Z,926.83
2022-09-27T01:01:26.444Z,922.53
2022-09-27T01:03:58.634Z,929.70
2022-09-27T01:06:27.112Z,926.53
2022-09-27T01:08:56.641Z,918.20
2022-09-27T01:11:37.381Z,928.23
2022-09-27T01:14:26.485Z,922.47
2022-09-27T01:17:00.166Z,921.27
2022-09-27T01:19:48.418Z,921.03
2022-09-27T01:22:18.846Z,917.40
2022-09-27T01:25:16.706Z,924.07
2022-09-27T01:28:09.634Z,918.73
2022-09-27T01:30:46.726Z,921.63
2022-09-27T01:33:25.859Z,920.90
2022-09-27T01:36:09.440Z,915.77
2022-09-27T01:38:46.096Z,919.37
2022-09-27T01:41:26.058Z,922.07
2022-09-27T01:44:24.975Z,923.60
2022-09-27T01:47:05.162Z,918.20
2022-09-27T01:49:50.070Z,922.43
2022-09-27T01:52:20.551Z,916.00
2022-09-27T01:54:53.024Z,913.03
2022-09-27T01:57:42.396Z,914.87
2022-09-27T02:00:17.463Z,920.23
2022-09-27T02:02:50.415Z,918.00
2022-09-27T02:05:37.518Z,916.77
2022-09-27T02:08:31.912Z,913.70
2022-09-27T02:11:10.167Z,905.70
2022-09-27T02:13:46.319Z,914.27
2022-09-27T02:16:45.669Z,913.97
2022-09-27T02:19:22.484Z,908.37
2022-09-27T02:21:57.166Z,908.63
2022-09-27T02:24:32.383Z,908.17
2022-09-27T02:27:07.342Z,913.13
2022-09-27T02:29:38.866Z,921.37
2022-09-27T02:32:07.851Z,907.83
2022-09-27T02:34:38.106Z,905.80
2022-09-27T02:37:06.296Z,908.70
2022-09-27T02:39:34.586Z,915.37
2022-09-27T02:42:06.454Z,904.40
2022-09-27T02:44:35.384Z,909.43
2022-09-27T02:47:22.704Z,904.57
2022-09-27T02:50:01.633Z,902.07
2022-09-27T02:52:57.257Z,909.53
2022-09-27T02:55:42.777Z,912.17
2022-09-27T02:58:39.321Z,904.40
2022-09-27T03:01:26.359Z,910.77
2022-09-27T03:04:10.750Z,907.57
2022-09-27T03:06:41.039Z,906.13
2022-09-27T03:09:15.660Z,912.73
2022-09-27T03:11:44.176Z,907.33
2022-09-27T03:14:12.369Z,904.83
2022-09-27T03:16:48.051Z,910.57
2022-09-27T03:19:51.343Z,907.03
2022-09-27T03:22:44.870Z,903.73
2022-09-27T03:25:13.137Z,905.20
2022-09-27T03:27:41.492Z,899.70
2022-09-27T03:30:11.254Z,904.90
2022-09-27T03:32:44.202Z,902.83
2022-09-27T03:35:30.937Z,898.83
2022-09-27T03:38:00.414Z,901.63
2022-09-27T03:40:28.511Z,896.60
2022-09-27T03:42:56.902Z,900.13
2022-09-27T03:45:24.952Z,897.90
2022-09-27T03:47:53.456Z,906.10
2022-09-27T03:50:21.690Z,898.67
2022-09-27T03:52:49.773Z,899.73
2022-09-27T03:55:19.388Z,903.80
2022-09-27T03:57:47.858Z,902.23
2022-09-27T04:00:18.065Z,893.23
2022-09-27T04:02:46.478Z,894.00
2022-09-27T04:05:37.962Z,894.73
2022-09-27T04:08:11.796Z,897.37
2022-09-27T04:10:41.373Z,895.37
2022-09-27T04:13:09.580Z,890.80
2022-09-27T04:15:47.405Z,896.67
2022-09-27T04:18:40.952Z,884.23
2022-09-27T04:21:38.113Z,895.10
2022-09-27T04:24:07.726Z,888.70
2022-09-27T04:26:38.137Z,893.97
2022-09-27T04:29:12.165Z,891.93
2022-09-27T04:31:45.846Z,894.10
2022-09-27T04:34:54.845Z,884.50
2022-09-27T04:37:25.876Z,875.57
2022-09-27T04:39:57.215Z,886.33
2022-09-27T04:42:28.684Z,890.27
2022-09-27T04:44:57.059Z,892.00
2022-09-27T04:47:25.258Z,890.23
2022-09-27T04:49:53.375Z,903.30
2022-09-27T04:52:21.581Z,893.03
2022-09-27T04:54:50.338Z,892.40
2022-09-27T04:57:18.665Z,902.43
2022-09-27T04:59:48.145Z,898.73
2022-09-27T05:02:16.677Z,892.43
2022-09-27T05:05:06.727Z,892.77
2022-09-27T05:07:39.823Z,892.03
2022-09-27T05:10:13.008Z,894.00
2022-09-27T05:12:41.765Z,894.50
2022-09-27T05:15:12.350Z,905.40
2022-09-27T05:18:00.424Z,896.60
2022-09-27T05:20:54.406Z,893.13
2022-09-27T05:23:28.312Z,896.60
2022-09-27T05:25:56.484Z,896.73
2022-09-27T05:28:25.188Z,892.37
2022-09-27T05:30:54.648Z,889.83
2022-09-27T05:33:23.221Z,891.93
2022-09-27T05:36:30.675Z,880.13
2022-09-27T05:38:58.749Z,894.43
2022-09-27T05:41:27.575Z,889.50
2022-09-27T05:43:56.278Z,885.93
2022-09-27T05:46:25.825Z,892.00
2022-09-27T05:48:54.122Z,882.93
2022-09-27T05:51:22.243Z,886.27
2022-09-27T05:53:50.435Z,889.67
2022-09-27T05:56:26.051Z,882.80
2022-09-27T05:59:16.068Z,873.10
2022-09-27T06:02:10.450Z,879.80
2022-09-27T06:05:13.678Z,868.40
2022-09-27T06:07:41.738Z,881.87
2022-09-27T06:10:18.344Z,880.30
2022-09-27T06:12:46.721Z,883.80
2022-09-27T06:15:29.936Z,880.03
2022-09-27T06:18:04.952Z,884.03
2022-09-27T06:20:33.911Z,874.70
2022-09-27T06:23:07.492Z,879.37
2022-09-27T06:25:36.077Z,874.00
2022-09-27T06:28:30.494Z,873.77
2022-09-27T06:31:00.432Z,877.90
2022-09-27T06:33:39.187Z,881.03
2022-09-27T06:36:08.514Z,878.50
2022-09-27T06:38:39.493Z,876.63
2022-09-27T06:41:28.870Z,865.80
2022-09-27T06:44:26.527Z,863.23
2022-09-27T06:47:13.364Z,863.07
2022-09-27T06:50:05.611Z,867.13
2022-09-27T06:52:35.035Z,870.00
2022-09-27T06:55:03.517Z,865.07
2022-09-27T06:57:50.558Z,872.17
2022-09-27T07:00:27.708Z,857.77
2022-09-27T07:03:09.164Z,850.70
2022-09-27T07:05:58.960Z,843.70
2022-09-27T07:08:52.063Z,832.63
2022-09-27T07:11:20.391Z,845.57
2022-09-27T07:13:48.515Z,843.90
2022-09-27T07:16:16.819Z,837.33
2022-09-27T07:18:45.194Z,847.67
2022-09-27T07:21:16.291Z,847.17
2022-09-27T07:23:44.350Z,845.73
2022-09-27T07:26:14.852Z,843.07
2022-09-27T07:28:43.015Z,840.57
2022-09-27T07:31:14.866Z,840.43
2022-09-27T07:33:43.585Z,842.13
2022-09-27T07:36:14.846Z,834.17
2022-09-27T07:38:46.810Z,840.70
2022-09-27T07:41:16.968Z,833.80
2022-09-27T07:43:45.700Z,839.50
2022-09-27T07:46:14.992Z,838.93
2022-09-27T07:48:57.890Z,839.43
2022-09-27T07:51:43.048Z,837.60
2022-09-27T07:54:29.986Z,827.53
2022-09-27T07:57:06.901Z,821.07
2022-09-27T07:59:45.305Z,819.60
2022-09-27T08:02:17.804Z,819.00
2022-09-27T08:04:47.979Z,927.30
2022-09-27T08:07:17.765Z,886.80
2022-09-27T08:09:49.472Z,874.47
2022-09-27T08:12:18.101Z,868.20
2022-09-27T08:14:48.411Z,861.80
2022-09-27T08:17:18.299Z,858.47
2022-09-27T08:20:06.857Z,857.00
2022-09-27T08:23:16.134Z,855.93
2022-09-27T08:25:45.402Z,866.07
2022-09-27T08:28:34.854Z,880.00
2022-09-27T08:31:07.112Z,881.40
2022-09-27T08:33:41.085Z,880.43
2022-09-27T08:36:14.085Z,894.17
2022-09-27T08:38:43.735Z,902.73
2022-09-27T08:41:18.508Z,909.33
2022-09-27T08:43:52.186Z,897.13
2022-09-27T08:46:28.890Z,902.93
2022-09-27T08:49:02.611Z,908.63
2022-09-27T08:51:31.778Z,883.80
2022-09-27T08:54:05.329Z,899.30
2022-09-27T08:56:33.755Z,905.87
2022-09-27T08:59:07.595Z,911.97
2022-09-27T09:01:36.460Z,914.13
2022-09-27T09:04:12.848Z,921.70
2022-09-27T09:06:44.451Z,922.50
2022-09-27T09:09:24.040Z,922.10
2022-09-27T09:12:30.225Z,928.53
2022-09-27T09:15:06.948Z,919.70
2022-09-27T09:17:44.328Z,921.67
2022-09-27T09:20:55.470Z,906.40
2022-09-27T09:23:44.967Z,926.93
2022-09-27T09:26:18.588Z,946.80
2022-09-27T09:28:59.177Z,959.17
2022-09-27T09:31:35.688Z,951.50
2022-09-27T09:34:10.471Z,955.70
2022-09-27T09:36:43.945Z,971.87
2022-09-27T09:39:16.491Z,978.13
2022-09-27T09:41:55.088Z,981.27
2022-09-27T09:44:27.475Z,972.10
2022-09-27T09:46:57.997Z,979.97
2022-09-27T09:49:31.002Z,973.10
2022-09-27T09:52:07.972Z,978.97
2022-09-27T09:54:41.199Z,978.33
2022-09-27T09:57:15.203Z,969.53
2022-09-27T09:59:46.634Z,970.63
2022-09-27T10:02:24.337Z,977.80
2022-09-27T10:04:57.037Z,969.77
2022-09-27T10:07:26.315Z,980.50
2022-09-27T10:09:57.324Z,975.40
2022-09-27T10:12:47.244Z,990.87
2022-09-27T10:15:18.780Z,997.53
2022-09-27T10:17:51.491Z,997.20
2022-09-27T10:20:29.676Z,1001.10
2022-09-27T10:23:02.515Z,992.97
2022-09-27T10:25:53.977Z,983.43
2022-09-27T10:28:52.484Z,969.23
2022-09-27T10:31:37.414Z,982.87
2022-09-27T10:34:21.571Z,992.50
2022-09-27T10:37:11.712Z,979.53
2022-09-27T10:39:45.512Z,997.80
2022-09-27T10:42:26.845Z,1001.93
2022-09-27T10:44:57.420Z,996.80
2022-09-27T10:47:33.820Z,1012.93
2022-09-27T10:50:08.045Z,1012.50
2022-09-27T10:53:04.215Z,1022.90
2022-09-27T10:55:35.222Z,1017.83
2022-09-27T10:58:03.897Z,1011.77
2022-09-27T11:00:34.674Z,1006.23
2022-09-27T11:03:05.921Z,1018.97
2022-09-27T11:05:38.258Z,1003.97
2022-09-27T11:08:24.241Z,1005.77
2022-09-27T11:11:17.367Z,1018.43
2022-09-27T11:13:59.411Z,1000.23
2022-09-27T11:16:42.022Z,997.10
2022-09-27T11:19:22.032Z,1008.87
2022-09-27T11:21:54.959Z,1004.97
2022-09-27T11:24:50.315Z,1012.93
2022-09-27T11:27:29.911Z,1007.83
2022-09-27T11:30:06.297Z,992.03
2022-09-27T11:33:10.419Z,1001.90
2022-09-27T11:35:47.392Z,1004.00
2022-09-27T11:38:47.902Z,1008.23
2022-09-27T11:41:33.851Z,1022.97
2022-09-27T11:44:30.061Z,1019.00
2022-09-27T11:47:06.046Z,1031.70
2022-09-27T11:49:53.691Z,1029.00
2022-09-27T11:52:36.716Z,1035.20
2022-09-27T11:55:21.626Z,1028.33
2022-09-27T11:58:00.799Z,1021.57
2022-09-27T12:00:40.580Z,1019.20
2022-09-27T12:03:44.778Z,1015.77
2022-09-27T12:06:22.540Z,1022.13
2022-09-27T12:09:03.696Z,1007.10
2022-09-27T12:11:37.939Z,1028.20
2022-09-27T12:14:10.738Z,1020.03
2022-09-27T12:16:40.549Z,1021.83
2022-09-27T12:19:13.851Z,1023.07
2022-09-27T12:21:56.274Z,1018.40
2022-09-27T12:24:26.003Z,1006.97
2022-09-27T12:27:16.633Z,1024.40
2022-09-27T12:29:45.790Z,1024.20
2022-09-27T12:32:18.855Z,1001.77
2022-09-27T12:34:52.206Z,998.47
2022-09-27T12:37:26.181Z,1014.77
2022-09-27T12:40:00.466Z,986.90
2022-09-27T12:42:37.400Z,995.27
2022-09-27T12:45:16.347Z,957.80
2022-09-27T12:47:58.368Z,946.33
2022-09-27T12:50:31.908Z,967.70
2022-09-27T12:53:05.453Z,986.97
2022-09-27T12:56:02.968Z,994.43
2022-09-27T12:58:51.017Z,990.30
2022-09-27T13:01:28.649Z,1019.03
2022-09-27T13:04:27.740Z,1019.67
2022-09-27T13:07:10.966Z,1022.23
2022-09-27T13:09:58.092Z,1025.90
2022-09-27T13:12:27.808Z,1023.03
2022-09-27T13:15:01.393Z,1011.23
2022-09-27T13:17:48.766Z,1017.37
2022-09-27T13:20:48.196Z,1013.37
2022-09-27T13:23:53.621Z,1015.20
2022-09-27T13:26:47.085Z,1003.67
2022-09-27T13:29:30.788Z,1015.97
2022-09-27T13:32:23.807Z,1012.67
2022-09-27T13:35:20.163Z,1005.93
2022-09-27T13:37:59.057Z,1007.40
2022-09-27T13:40:33.679Z,986.93
2022-09-27T13:43:47.660Z,1003.67
2022-09-27T13:46:28.151Z,1048.63
2022-09-27T13:48:59.835Z,1050.90
2022-09-27T13:51:44.430Z,1038.27
2022-09-27T13:54:38.808Z,1032.37
2022-09-27T13:57:43.065Z,1029.03
2022-09-27T14:00:18.364Z,1033.73
2022-09-27T14:03:00.918Z,1034.47
2022-09-27T14:05:42.572Z,1028.73
2022-09-27T14:08:20.583Z,1032.90
2022-09-27T14:10:49.209Z,1038.33
2022-09-27T14:13:21.100Z,1044.43
2022-09-27T14:16:01.903Z,1043.90
2022-09-27T14:18:30.998Z,1046.90
2022-09-27T14:21:13.389Z,1048.77
2022-09-27T14:23:52.428Z,1036.03
2022-09-27T14:26:25.483Z,1034.00
2022-09-27T14:28:53.596Z,1046.23
2022-09-27T14:31:33.352Z,1043.00
2022-09-27T14:34:21.814Z,1040.07
2022-09-27T14:37:07.230Z,1035.47
2022-09-27T14:39:54.759Z,1038.60
2022-09-27T14:42:33.010Z,1046.97
2022-09-27T14:45:07.268Z,1040.80
2022-09-27T14:47:36.650Z,1026.97
2022-09-27T14:50:14.814Z,1026.60
2022-09-27T14:52:42.792Z,1032.40
2022-09-27T14:55:15.265Z,1033.90
2022-09-27T14:57:48.094Z,1018.60
2022-09-27T15:00:21.723Z,1025.23
2022-09-27T15:02:54.241Z,1039.67
2022-09-27T15:05:24.739Z,1014.90
2022-09-27T15:07:55.729Z,1047.80
2022-09-27T15:10:27.238Z,1021.10
2022-09-27T15:12:59.873Z,1038.27
2022-09-27T15:15:30.420Z,1015.33
2022-09-27T15:18:00.228Z,1039.17
2022-09-27T15:20:34.649Z,1043.03
2022-09-27T15:23:04.520Z,1071.60
2022-09-27T15:25:35.353Z,1044.77
2022-09-27T15:28:05.956Z,1036.77
2022-09-27T15:30:38.752Z,1025.53
2022-09-27T15:33:09.259Z,1018.07
2022-09-27T15:35:37.420Z,1036.23
2022-09-27T15:38:13.971Z,1035.37
2022-09-27T15:41:10.507Z,1053.47
2022-09-27T15:43:41.599Z,1053.93
2022-09-27T15:46:39.214Z,1062.67
2022-09-27T15:49:31.287Z,1074.77
2022-09-27T15:52:00.950Z,1065.50
2022-09-27T15:54:30.697Z,1043.40
2022-09-27T15:57:04.346Z,1028.77
2022-09-27T15:59:34.859Z,1031.43
2022-09-27T16:02:08.162Z,987.30
2022-09-27T16:04:37.702Z,1013.63
2022-09-27T16:07:08.965Z,1007.87
2022-09-27T16:09:37.296Z,990.83
2022-09-27T16:12:05.620Z,1003.20
2022-09-27T16:14:36.237Z,1061.17
2022-09-27T16:17:04.182Z,1078.00
2022-09-27T16:19:33.452Z,1077.97
2022-09-27T16:22:03.669Z,1091.43
2022-09-27T16:24:32.105Z,1089.00
2022-09-27T16:27:00.225Z,1088.73
2022-09-27T16:29:28.134Z,1079.50
2022-09-27T16:31:56.037Z,1091.03
2022-09-27T16:34:24.205Z,1085.40
2022-09-27T16:36:52.184Z,1096.93
2022-09-27T16:39:21.583Z,1110.70
2022-09-27T16:41:52.144Z,1130.33
2022-09-27T16:44:20.118Z,1146.43
2022-09-27T16:46:48.126Z,1120.60
2022-09-27T16:49:32.668Z,1100.67
2022-09-27T16:52:00.663Z,1084.13
2022-09-27T16:54:30.710Z,1046.07
2022-09-27T16:56:59.513Z,1031.97
2022-09-27T16:59:27.650Z,972.70
2022-09-27T17:01:57.222Z,774.63
2022-09-27T17:04:25.354Z,1052.27
2022-09-27T17:06:53.278Z,945.67
2022-09-27T17:09:22.093Z,1046.90
2022-09-27T17:11:52.047Z,1132.77
2022-09-27T17:14:20.708Z,1094.00
2022-09-27T17:16:49.783Z,761.50
2022-09-27T17:19:18.816Z,617.97
2022-09-27T17:21:47.304Z,782.60
2022-09-27T17:24:15.411Z,769.03
2022-09-27T17:26:43.676Z,772.83
2022-09-27T17:29:15.864Z,769.67
2022-09-27T17:31:44.568Z,769.10
2022-09-27T17:34:15.981Z,766.77
2022-09-27T17:36:48.331Z,777.10
2022-09-27T17:39:18.052Z,775.93
2022-09-27T17:41:46.155Z,766.30
2022-09-27T17:44:18.215Z,756.33
2022-09-27T17:46:46.726Z,750.67
2022-09-27T17:49:32.536Z,742.20
2022-09-27T17:52:00.668Z,737.00
2022-09-27T17:54:28.801Z,749.57
2022-09-27T17:56:57.248Z,748.13
2022-09-27T17:59:26.923Z,724.57
2022-09-27T18:01:55.479Z,717.03
2022-09-27T18:04:23.569Z,712.30
2022-09-27T18:06:51.517Z,701.60
2022-09-27T18:09:19.744Z,686.00
2022-09-27T18:11:48.267Z,692.70
2022-09-27T18:14:16.354Z,687.27
2022-09-27T18:16:45.820Z,688.20
2022-09-27T18:19:16.375Z,690.13
2022-09-27T18:21:44.727Z,680.10
2022-09-27T18:24:14.248Z,683.93
2022-09-27T18:26:42.466Z,682.30
2022-09-27T18:29:12.122Z,682.60
2022-09-27T18:31:42.119Z,683.80
2022-09-27T18:34:14.369Z,684.63
2022-09-27T18:36:43.946Z,689.80
2022-09-27T18:39:14.938Z,680.23
2022-09-27T18:41:43.072Z,693.83
2022-09-27T18:44:13.523Z,704.67
2022-09-27T18:46:41.849Z,710.63
2022-09-27T18:49:11.395Z,719.43
2022-09-27T18:51:43.983Z,730.60
2022-09-27T18:54:16.202Z,719.70
2022-09-27T18:56:44.324Z,727.37
2022-09-27T18:59:13.400Z,739.63
2022-09-27T19:01:45.065Z,746.80
2022-09-27T19:04:14.954Z,737.40
2022-09-27T19:06:44.495Z,742.93
2022-09-27T19:09:12.984Z,742.63
2022-09-27T19:11:41.055Z,745.93
2022-09-27T19:14:09.052Z,746.17
2022-09-27T19:16:36.973Z,753.73
2022-09-27T19:19:05.023Z,753.27
2022-09-27T19:21:32.963Z,755.00
2022-09-27T19:24:02.761Z,748.33
2022-09-27T19:26:30.688Z,736.27
2022-09-27T19:28:59.118Z,732.93
2022-09-27T19:31:29.539Z,737.50
2022-09-27T19:34:00.492Z,735.80
2022-09-27T19:36:29.357Z,736.40
2022-09-27T19:38:58.485Z,742.47
2022-09-27T19:41:28.491Z,742.37
2022-09-27T19:43:57.143Z,750.07
2022-09-27T19:46:26.496Z,751.67
2022-09-27T19:48:55.192Z,759.77
2022-09-27T19:51:24.694Z,756.33
2022-09-27T19:53:53.246Z,750.73
2022-09-27T19:56:21.770Z,752.03
2022-09-27T19:58:52.155Z,742.57
2022-09-27T20:01:22.309Z,747.03
2022-09-27T20:03:53.640Z,739.00
2022-09-27T20:06:23.847Z,728.80
2022-09-27T20:08:52.881Z,724.13
2022-09-27T20:11:24.622Z,717.47
2022-09-27T20:13:54.979Z,724.83
2022-09-27T20:16:26.586Z,713.93
2022-09-27T20:18:56.588Z,717.50
2022-09-27T20:21:26.424Z,722.70
2022-09-27T20:23:55.880Z,723.50
2022-09-27T20:26:25.232Z,723.30
2022-09-27T20:28:57.092Z,717.10
2022-09-27T20:31:26.742Z,706.17
2022-09-27T20:33:58.200Z,700.07
2022-09-27T20:36:28.119Z,669.40
2022-09-27T20:39:02.333Z,670.90
2022-09-27T20:41:32.728Z,657.23
2022-09-27T20:44:04.742Z,656.17
2022-09-27T20:46:33.971Z,659.87
2022-09-27T20:49:03.979Z,659.83
2022-09-27T20:51:33.801Z,668.03
2022-09-27T20:54:02.901Z,669.27
2022-09-27T20:56:38.580Z,669.47
2022-09-27T20:59:14.746Z,667.03
2022-09-27T21:01:43.661Z,666.47
2022-09-27T21:04:12.897Z,666.70
2022-09-27T21:06:41.507Z,665.67
2022-09-27T21:09:10.338Z,665.50
2022-09-27T21:11:38.714Z,660.17
2022-09-27T21:14:08.043Z,661.73
2022-09-27T21:16:36.527Z,664.47
2022-09-27T21:19:07.099Z,665.87
2022-09-27T21:21:35.130Z,671.13
2022-09-27T21:24:03.393Z,666.80
2022-09-27T21:26:33.113Z,660.57
2022-09-27T21:29:02.595Z,668.50
2022-09-27T21:31:33.214Z,665.60
2022-09-27T21:34:03.560Z,669.23
2022-09-27T21:36:33.647Z,679.97
2022-09-27T21:39:02.057Z,680.00
2022-09-27T21:41:30.272Z,673.47
2022-09-27T21:43:58.329Z,680.70
2022-09-27T21:46:28.480Z,678.37
2022-09-27T21:48:59.365Z,686.50
2022-09-27T21:51:29.172Z,680.70
2022-09-27T21:53:58.417Z,687.07
2022-09-27T21:56:27.509Z,688.17
2022-09-27T21:58:55.567Z,693.73
2022-09-27T22:01:25.222Z,694.10
2022-09-27T22:03:55.538Z,708.27
2022-09-27T22:06:26.928Z,707.63
2022-09-27T22:08:55.450Z,721.80
2022-09-27T22:11:25.104Z,729.33
2022-09-27T22:13:53.374Z,735.67
2022-09-27T22:16:22.581Z,727.87
2022-09-27T22:18:52.283Z,736.23
2022-09-27T22:21:22.925Z,758.17
2022-09-27T22:23:55.913Z,757.00
2022-09-27T22:26:25.802Z,785.20
2022-09-27T22:28:53.850Z,799.17
2022-09-27T22:31:22.428Z,811.13
2022-09-27T22:33:51.163Z,806.10
2022-09-27T22:36:19.365Z,802.50
2022-09-27T22:38:47.703Z,809.73
2022-09-27T22:41:17.362Z,821.80
2022-09-27T22:43:45.377Z,820.37
2022-09-27T22:46:13.999Z,843.10
2022-09-27T22:48:42.607Z,832.63
2022-09-27T22:51:10.541Z,839.97
2022-09-27T22:53:39.035Z,834.93
2022-09-27T22:56:08.876Z,835.83
2022-09-27T22:58:38.544Z,826.37
2022-09-27T23:01:10.335Z,830.87
2022-09-27T23:03:38.403Z,830.93
2022-09-27T23:06:07.292Z,828.40
2022-09-27T23:08:36.178Z,830.00
2022-09-27T23:11:05.857Z,826.37
2022-09-27T23:13:34.615Z,823.50
2022-09-27T23:16:05.751Z,826.77
2022-09-27T23:18:34.157Z,821.63
2022-09-27T23:21:03.706Z,821.43
2022-09-27T23:23:32.047Z,810.93
2022-09-27T23:26:01.148Z,808.93
2022-09-27T23:28:30.013Z,812.37
2022-09-27T23:30:58.043Z,813.20
2022-09-27T23:33:27.939Z,809.67
2022-09-27T23:35:55.977Z,803.83
2022-09-27T23:38:23.933Z,808.60
2022-09-27T23:40:51.909Z,809.17
2022-09-27T23:43:19.893Z,812.67
2022-09-27T23:45:47.764Z,806.97
2022-09-27T23:48:15.751Z,805.43
2022-09-27T23:50:45.096Z,803.90
2022-09-27T23:53:13.038Z,801.60
2022-09-27T23:55:40.965Z,803.03
2022-09-27T23:58:08.832Z,800.60
